createdAt,value
2023-03-12T00:00:52.578Z,3.22
2023-03-12T00:03:19.039Z,2.70
2023-03-12T00:05:45.610Z,2.65
2023-03-12T00:08:12.851Z,2.50
2023-03-12T00:10:40.776Z,3.10
2023-03-12T00:13:08.362Z,3.40
2023-03-12T00:15:39.369Z,3.50
2023-03-12T00:18:06.015Z,3.50
2023-03-12T00:20:32.950Z,3.97
2023-03-12T00:22:59.454Z,3.80
2023-03-12T00:25:25.893Z,3.88
2023-03-12T00:27:52.289Z,3.45
2023-03-12T00:30:18.897Z,4.25
2023-03-12T00:32:45.459Z,3.90
2023-03-12T00:35:11.948Z,3.97
2023-03-12T00:37:38.618Z,4.05
2023-03-12T00:40:06.347Z,3.38
2023-03-12T00:42:32.777Z,3.75
2023-03-12T00:44:59.307Z,3.50
2023-03-12T00:47:25.779Z,3.90
2023-03-12T00:49:52.196Z,4.13
2023-03-12T00:52:18.658Z,4.20
2023-03-12T00:54:45.130Z,4.50
2023-03-12T00:57:11.613Z,3.50
2023-03-12T00:59:40.383Z,3.92
2023-03-12T01:02:08.149Z,3.95
2023-03-12T01:04:34.674Z,3.90
2023-03-12T01:07:01.208Z,4.05
2023-03-12T01:09:27.611Z,3.53
2023-03-12T01:11:54.021Z,3.88
2023-03-12T01:14:20.459Z,3.67
2023-03-12T01:16:46.969Z,3.15
2023-03-12T01:19:13.547Z,3.17
2023-03-12T01:21:39.951Z,3.40
2023-03-12T01:24:07.073Z,3.63
2023-03-12T01:26:33.694Z,3.42
2023-03-12T01:29:00.140Z,3.60
2023-03-12T01:31:26.734Z,2.90
2023-03-12T01:33:53.800Z,3.00
2023-03-12T01:36:26.880Z,2.90
2023-03-12T01:38:55.611Z,3.17
2023-03-12T01:41:23.762Z,2.47
2023-03-12T01:43:50.802Z,2.67
2023-03-12T01:46:33.871Z,2.07
2023-03-12T01:49:24.245Z,2.50
2023-03-12T01:52:00.078Z,2.40
2023-03-12T01:54:32.514Z,2.40
2023-03-12T01:57:00.493Z,2.25
2023-03-12T01:59:39.084Z,2.10
2023-03-12T02:02:06.799Z,2.10
2023-03-12T02:04:34.179Z,2.00
2023-03-12T02:07:16.122Z,2.47
2023-03-12T02:09:48.649Z,1.70
2023-03-12T02:12:16.663Z,1.70
2023-03-12T02:14:45.765Z,1.90
2023-03-12T02:17:12.403Z,1.88
2023-03-12T02:20:02.035Z,1.92
2023-03-12T02:22:30.014Z,2.08
2023-03-12T02:25:24.693Z,1.90
2023-03-12T02:27:51.910Z,1.90
2023-03-12T02:30:19.402Z,2.10
2023-03-12T02:32:48.566Z,1.80
2023-03-12T02:35:16.763Z,1.90
2023-03-12T02:37:51.560Z,2.00
2023-03-12T02:40:43.870Z,1.45
2023-03-12T02:43:11.290Z,1.73
2023-03-12T02:45:38.964Z,1.88
2023-03-12T02:48:08.856Z,1.83
2023-03-12T02:50:35.289Z,1.90
2023-03-12T02:53:01.662Z,2.20
2023-03-12T02:55:28.074Z,1.88
2023-03-12T02:57:54.526Z,1.67
2023-03-12T03:00:21.289Z,1.50
2023-03-12T03:02:47.702Z,1.70
2023-03-12T03:05:14.149Z,1.65
2023-03-12T03:07:40.586Z,1.50
2023-03-12T03:10:07.454Z,1.70
2023-03-12T03:12:35.530Z,1.67
2023-03-12T03:15:02.352Z,1.50
2023-03-12T03:17:28.833Z,1.48
2023-03-12T03:19:55.481Z,1.60
2023-03-12T03:22:22.782Z,1.48
2023-03-12T03:24:49.804Z,1.33
2023-03-12T03:27:16.542Z,1.63
2023-03-12T03:29:45.512Z,1.70
2023-03-12T03:32:12.356Z,1.50
2023-03-12T03:34:39.495Z,1.50
2023-03-12T03:37:05.967Z,1.23
2023-03-12T03:39:32.847Z,1.30
2023-03-12T03:41:59.242Z,1.45
2023-03-12T03:44:25.950Z,1.63
2023-03-12T03:46:53.510Z,1.27
2023-03-12T03:49:20.244Z,1.38
2023-03-12T03:51:46.902Z,1.33
2023-03-12T03:54:13.421Z,1.35
2023-03-12T03:56:41.087Z,1.38
2023-03-12T03:59:07.811Z,2.22
2023-03-12T04:01:34.248Z,2.10
2023-03-12T04:04:00.740Z,1.30
2023-03-12T04:06:27.237Z,1.30
2023-03-12T04:08:53.641Z,1.50
2023-03-12T04:11:21.351Z,1.23
2023-03-12T04:13:48.837Z,1.13
2023-03-12T04:16:15.883Z,1.13
2023-03-12T04:18:43.130Z,1.30
2023-03-12T04:21:12.324Z,1.30
2023-03-12T04:23:39.559Z,1.10
2023-03-12T04:26:06.959Z,1.73
2023-03-12T04:28:34.401Z,1.30
2023-03-12T04:31:06.232Z,1.33
2023-03-12T04:33:35.751Z,1.60
2023-03-12T04:36:02.431Z,1.30
2023-03-12T04:38:30.007Z,1.50
2023-03-12T04:41:02.433Z,1.40
2023-03-12T04:43:29.676Z,1.60
2023-03-12T04:45:56.957Z,1.23
2023-03-12T04:48:23.625Z,2.17
2023-03-12T04:50:50.164Z,1.58
2023-03-12T04:53:16.647Z,1.50
2023-03-12T04:55:43.154Z,1.23
2023-03-12T04:58:09.540Z,1.92
2023-03-12T05:00:36.563Z,1.85
2023-03-12T05:03:03.150Z,1.70
2023-03-12T05:05:29.670Z,1.40
2023-03-12T05:07:56.043Z,1.80
2023-03-12T05:10:22.472Z,1.70
2023-03-12T05:12:48.840Z,1.95
2023-03-12T05:15:17.760Z,1.90
2023-03-12T05:17:44.780Z,1.63
2023-03-12T05:20:12.584Z,1.88
2023-03-12T05:22:39.770Z,1.90
2023-03-12T05:25:06.823Z,2.30
2023-03-12T05:27:33.382Z,1.63
2023-03-12T05:29:59.834Z,2.03
2023-03-12T05:32:26.466Z,1.60
2023-03-12T05:34:53.092Z,1.77
2023-03-12T05:37:19.502Z,1.92
2023-03-12T05:39:48.596Z,2.10
2023-03-12T05:42:16.183Z,1.93
2023-03-12T05:44:42.973Z,1.77
2023-03-12T05:47:09.534Z,1.80
2023-03-12T05:49:35.984Z,2.00
2023-03-12T05:52:02.407Z,1.90
2023-03-12T05:54:29.185Z,1.90
2023-03-12T05:56:56.337Z,1.92
2023-03-12T05:59:22.979Z,1.80
2023-03-12T06:01:49.511Z,2.35
2023-03-12T06:04:16.117Z,2.17
2023-03-12T06:06:42.517Z,2.00
2023-03-12T06:09:08.988Z,1.55
2023-03-12T06:11:35.435Z,1.30
2023-03-12T06:14:01.921Z,1.55
2023-03-12T06:16:29.706Z,1.63
2023-03-12T06:18:58.141Z,2.13
2023-03-12T06:21:27.576Z,2.28
2023-03-12T06:23:54.353Z,1.77
2023-03-12T06:26:22.182Z,1.88
2023-03-12T06:28:50.215Z,1.45
2023-03-12T06:31:17.898Z,2.00
2023-03-12T06:33:44.375Z,1.15
2023-03-12T06:36:11.561Z,2.10
2023-03-12T06:38:38.805Z,1.33
2023-03-12T06:41:09.191Z,1.63
2023-03-12T06:43:37.334Z,2.00
2023-03-12T06:46:05.195Z,2.20
2023-03-12T06:48:36.759Z,2.53
2023-03-12T06:51:04.713Z,2.00
2023-03-12T06:53:31.697Z,1.85
2023-03-12T06:55:58.638Z,1.90
2023-03-12T06:58:25.093Z,1.85
2023-03-12T07:00:51.984Z,1.60
2023-03-12T07:03:18.503Z,2.15
2023-03-12T07:05:45.933Z,2.28
2023-03-12T07:08:13.239Z,2.53
2023-03-12T07:10:39.794Z,1.60
2023-03-12T07:13:06.671Z,2.10
2023-03-12T07:15:33.383Z,2.47
2023-03-12T07:18:01.202Z,2.15
2023-03-12T07:20:27.659Z,2.20
2023-03-12T07:22:54.052Z,2.30
2023-03-12T07:25:20.499Z,2.45
2023-03-12T07:27:47.126Z,2.20
2023-03-12T07:30:13.694Z,2.55
2023-03-12T07:32:41.190Z,2.37
2023-03-12T07:35:07.892Z,2.50
2023-03-12T07:37:34.340Z,2.38
2023-03-12T07:40:00.906Z,2.60
2023-03-12T07:42:27.546Z,2.78
2023-03-12T07:44:53.978Z,2.60
2023-03-12T07:47:23.926Z,2.15
2023-03-12T07:49:51.142Z,2.78
2023-03-12T07:52:19.997Z,2.40
2023-03-12T07:54:46.647Z,2.38
2023-03-12T07:57:13.220Z,2.57
2023-03-12T07:59:39.808Z,2.15
2023-03-12T08:02:06.715Z,2.65
2023-03-12T08:04:33.367Z,2.58
2023-03-12T08:06:59.928Z,3.10
2023-03-12T08:09:26.430Z,2.60
2023-03-12T08:11:53.029Z,3.03
2023-03-12T08:14:19.549Z,2.78
2023-03-12T08:16:46.668Z,2.72
2023-03-12T08:19:13.149Z,2.63
2023-03-12T08:21:39.596Z,3.40
2023-03-12T08:24:06.451Z,2.90
2023-03-12T08:26:32.864Z,2.90
2023-03-12T08:29:00.355Z,2.63
2023-03-12T08:31:29.761Z,2.75
2023-03-12T08:33:56.188Z,3.05
2023-03-12T08:36:22.797Z,2.95
2023-03-12T08:38:49.347Z,3.33
2023-03-12T08:41:15.894Z,3.90
2023-03-12T08:43:42.454Z,3.92
2023-03-12T08:46:11.834Z,3.25
2023-03-12T08:48:39.827Z,3.63
2023-03-12T08:51:07.528Z,3.70
2023-03-12T08:53:36.070Z,3.67
2023-03-12T08:56:03.498Z,3.55
2023-03-12T08:58:30.576Z,2.67
2023-03-12T09:00:57.778Z,2.90
2023-03-12T09:03:25.137Z,3.45
2023-03-12T09:06:01.839Z,3.43
2023-03-12T09:08:28.240Z,2.78
2023-03-12T09:10:54.661Z,3.63
2023-03-12T09:13:21.088Z,3.67
2023-03-12T09:15:47.523Z,3.85
2023-03-12T09:18:13.944Z,4.20
2023-03-12T09:20:42.758Z,4.38
2023-03-12T09:23:09.220Z,4.97
2023-03-12T09:25:35.617Z,4.35
2023-03-12T09:28:02.563Z,3.97
2023-03-12T09:30:30.272Z,4.40
2023-03-12T09:32:56.896Z,4.63
2023-03-12T09:35:23.418Z,5.18
2023-03-12T09:37:51.309Z,5.43
2023-03-12T09:40:23.229Z,5.45
2023-03-12T09:42:55.457Z,5.60
2023-03-12T09:45:26.980Z,5.75
2023-03-12T09:48:00.099Z,6.03
2023-03-12T09:50:31.679Z,5.47
2023-03-12T09:53:04.600Z,5.75
2023-03-12T09:55:40.345Z,5.83
2023-03-12T09:58:17.909Z,6.22
2023-03-12T10:00:46.461Z,5.88
2023-03-12T10:04:07.076Z,6.78
2023-03-12T10:06:41.746Z,7.20
2023-03-12T10:09:27.965Z,5.93
2023-03-12T10:12:12.125Z,6.80
2023-03-12T10:14:38.530Z,6.38
2023-03-12T10:17:26.867Z,6.43
2023-03-12T10:20:09.446Z,6.20
2023-03-12T10:22:54.579Z,6.60
2023-03-12T10:25:37.410Z,6.03
2023-03-12T10:28:25.770Z,7.85
2023-03-12T10:30:57.229Z,6.63
2023-03-12T10:33:30.590Z,7.60
2023-03-12T10:35:57.034Z,7.53
2023-03-12T10:38:29.831Z,7.03
2023-03-12T10:40:56.395Z,6.60
2023-03-12T10:43:23.047Z,7.57
2023-03-12T10:46:04.623Z,6.57
2023-03-12T10:48:31.101Z,7.57
2023-03-12T10:51:06.897Z,7.53
2023-03-12T10:53:48.129Z,7.28
2023-03-12T10:56:17.635Z,7.13
2023-03-12T10:58:45.580Z,7.13
2023-03-12T11:01:26.089Z,7.10
2023-03-12T11:04:07.932Z,7.40
2023-03-12T11:06:35.695Z,6.88
2023-03-12T11:09:22.420Z,6.50
2023-03-12T11:11:50.420Z,6.25
2023-03-12T11:14:21.352Z,6.47
2023-03-12T11:16:48.760Z,6.78
2023-03-12T11:19:30.186Z,6.20
2023-03-12T11:22:03.123Z,6.55
2023-03-12T11:24:29.662Z,6.57
2023-03-12T11:27:07.804Z,5.60
2023-03-12T11:29:40.234Z,5.68
2023-03-12T11:32:17.280Z,4.88
2023-03-12T11:34:49.418Z,5.20
2023-03-12T11:37:26.422Z,5.32
2023-03-12T11:40:09.910Z,5.00
2023-03-12T11:42:51.918Z,5.90
2023-03-12T11:45:43.554Z,4.55
2023-03-12T11:48:23.204Z,4.05
2023-03-12T11:51:14.792Z,4.70
2023-03-12T11:53:58.676Z,3.90
2023-03-12T11:56:33.882Z,3.88
2023-03-12T11:59:03.258Z,3.70
2023-03-12T12:02:07.065Z,3.40
2023-03-12T12:05:04.524Z,3.50
2023-03-12T12:07:51.378Z,3.37
2023-03-12T12:10:38.914Z,3.78
2023-03-12T12:13:22.284Z,3.28
2023-03-12T12:16:47.226Z,3.53
2023-03-12T12:19:31.808Z,3.33
2023-03-12T12:22:24.272Z,2.80
2023-03-12T12:25:15.428Z,2.17
2023-03-12T12:28:02.442Z,2.47
2023-03-12T12:31:05.915Z,2.38
2023-03-12T12:34:09.580Z,2.72
2023-03-12T12:36:36.693Z,3.47
2023-03-12T12:39:13.257Z,3.60
2023-03-12T12:41:47.782Z,3.45
2023-03-12T12:44:19.164Z,3.40
2023-03-12T12:46:55.223Z,3.30
2023-03-12T12:49:26.866Z,3.67
2023-03-12T12:52:03.455Z,3.25
2023-03-12T12:54:59.183Z,3.22
2023-03-12T12:57:42.165Z,3.80
2023-03-12T13:00:26.202Z,2.88
2023-03-12T13:02:55.298Z,2.80
2023-03-12T13:05:39.893Z,3.25
2023-03-12T13:08:08.756Z,2.63
2023-03-12T13:10:35.168Z,3.15
2023-03-12T13:13:11.925Z,3.28
2023-03-12T13:15:43.594Z,3.90
2023-03-12T13:18:22.290Z,3.70
2023-03-12T13:20:51.359Z,3.00
2023-03-12T13:24:06.241Z,3.10
2023-03-12T13:27:07.942Z,2.97
2023-03-12T13:29:36.377Z,3.23
2023-03-12T13:32:04.288Z,2.90
2023-03-12T13:34:42.411Z,3.28
2023-03-12T13:37:30.151Z,3.65
2023-03-12T13:40:01.766Z,3.58
2023-03-12T13:42:38.162Z,3.53
2023-03-12T13:45:26.415Z,3.65
2023-03-12T13:47:58.441Z,2.50
2023-03-12T13:50:25.643Z,3.78
2023-03-12T13:53:05.921Z,3.10
2023-03-12T13:55:37.798Z,3.57
2023-03-12T13:58:10.294Z,3.13
2023-03-12T14:00:41.457Z,3.42
2023-03-12T14:03:29.163Z,2.65
2023-03-12T14:06:00.257Z,3.15
2023-03-12T14:08:45.584Z,2.87
2023-03-12T14:11:37.963Z,2.92
2023-03-12T14:14:16.372Z,2.53
2023-03-12T14:16:51.219Z,2.40
2023-03-12T14:19:23.326Z,2.70
2023-03-12T14:21:51.409Z,2.13
2023-03-12T14:24:39.333Z,2.20
2023-03-12T14:27:12.471Z,2.20
2023-03-12T14:29:42.920Z,3.17
2023-03-12T14:32:20.515Z,1.42
2023-03-12T14:34:53.792Z,1.63
2023-03-12T14:37:23.990Z,1.67
2023-03-12T14:40:02.450Z,1.95
2023-03-12T14:42:32.311Z,1.63
2023-03-12T14:45:00.156Z,1.60
2023-03-12T14:47:27.086Z,1.70
2023-03-12T14:49:56.360Z,1.45
2023-03-12T14:52:25.970Z,1.45
2023-03-12T14:54:58.844Z,1.13
2023-03-12T14:57:25.805Z,2.33
2023-03-12T14:59:59.987Z,1.90
2023-03-12T15:02:30.232Z,2.05
2023-03-12T15:04:59.486Z,2.10
2023-03-12T15:07:30.856Z,1.80
2023-03-12T15:09:57.630Z,2.05
2023-03-12T15:12:26.762Z,1.53
2023-03-12T15:15:01.393Z,1.70
2023-03-12T15:17:30.709Z,2.13
2023-03-12T15:19:57.435Z,1.83
2023-03-12T15:22:27.758Z,1.45
2023-03-12T15:24:54.305Z,1.10
2023-03-12T15:27:29.594Z,2.60
2023-03-12T15:29:58.299Z,2.10
2023-03-12T15:32:26.392Z,2.35
2023-03-12T15:34:54.542Z,2.08
2023-03-12T15:37:32.674Z,1.60
2023-03-12T15:40:02.288Z,2.08
2023-03-12T15:42:29.304Z,1.90
2023-03-12T15:45:03.189Z,2.13
2023-03-12T15:47:33.245Z,1.55
2023-03-12T15:50:03.633Z,1.80
2023-03-12T15:52:34.057Z,2.17
2023-03-12T15:55:10.239Z,1.45
2023-03-12T15:57:49.255Z,1.58
2023-03-12T16:00:27.370Z,2.05
2023-03-12T16:02:58.990Z,2.50
2023-03-12T16:05:29.569Z,1.88
2023-03-12T16:07:56.109Z,1.80
2023-03-12T16:10:25.555Z,1.33
2023-03-12T16:12:57.296Z,2.10
2023-03-12T16:15:30.398Z,2.67
2023-03-12T16:17:56.891Z,1.88
2023-03-12T16:20:23.360Z,2.17
2023-03-12T16:22:49.850Z,1.60
2023-03-12T16:25:16.348Z,2.33
2023-03-12T16:27:55.101Z,2.20
2023-03-12T16:30:30.867Z,1.88
2023-03-12T16:33:00.350Z,1.33
2023-03-12T16:35:28.285Z,2.33
2023-03-12T16:37:55.768Z,2.15
2023-03-12T16:40:32.984Z,2.17
2023-03-12T16:43:05.789Z,2.28
2023-03-12T16:45:35.982Z,1.80
2023-03-12T16:48:05.666Z,2.33
2023-03-12T16:50:32.326Z,2.10
2023-03-12T16:52:58.785Z,1.83
2023-03-12T16:55:30.231Z,2.05
2023-03-12T16:58:00.303Z,3.00
2023-03-12T17:00:33.166Z,1.73
2023-03-12T17:02:59.925Z,2.20
2023-03-12T17:05:28.768Z,2.40
2023-03-12T17:07:55.960Z,2.33
2023-03-12T17:10:23.616Z,2.20
2023-03-12T17:12:50.770Z,2.53
2023-03-12T17:15:21.162Z,2.55
2023-03-12T17:17:49.507Z,1.90
2023-03-12T17:20:18.914Z,1.77
2023-03-12T17:22:45.539Z,1.77
2023-03-12T17:25:33.537Z,2.30
2023-03-12T17:28:00.376Z,2.13
2023-03-12T17:30:28.527Z,1.90
2023-03-12T17:33:05.078Z,2.47
2023-03-12T17:35:31.937Z,2.00
2023-03-12T17:37:59.050Z,1.77
2023-03-12T17:40:25.704Z,2.50
2023-03-12T17:42:52.411Z,2.17
2023-03-12T17:45:20.794Z,1.80
2023-03-12T17:47:47.290Z,2.05
2023-03-12T17:50:14.081Z,2.17
2023-03-12T17:52:40.608Z,2.47
2023-03-12T17:55:10.499Z,2.53
2023-03-12T17:57:38.263Z,2.20
2023-03-12T18:00:10.875Z,1.40
2023-03-12T18:02:37.382Z,2.20
2023-03-12T18:05:04.036Z,2.72
2023-03-12T18:07:30.557Z,1.37
2023-03-12T18:09:56.956Z,2.05
2023-03-12T18:12:23.389Z,1.38
2023-03-12T18:14:49.832Z,2.00
2023-03-12T18:17:16.296Z,1.13
2023-03-12T18:19:42.800Z,0.83
2023-03-12T18:22:12.071Z,0.98
2023-03-12T18:24:38.455Z,0.68
2023-03-12T18:27:04.854Z,1.17
2023-03-12T18:29:31.234Z,1.02
2023-03-12T18:31:57.653Z,1.50
2023-03-12T18:34:24.192Z,0.60
2023-03-12T18:36:50.733Z,0.60
2023-03-12T18:39:17.112Z,0.65
2023-03-12T18:41:43.602Z,0.50
2023-03-12T18:44:10.155Z,0.60
2023-03-12T18:46:36.580Z,0.70
2023-03-12T18:49:04.738Z,0.60
2023-03-12T18:51:31.207Z,0.80
2023-03-12T18:53:57.651Z,0.20
2023-03-12T18:56:24.105Z,0.63
2023-03-12T18:58:50.711Z,0.40
2023-03-12T19:01:17.228Z,0.93
2023-03-12T19:03:43.662Z,0.55
2023-03-12T19:06:15.516Z,1.15
2023-03-12T19:08:42.883Z,0.30
2023-03-12T19:11:15.506Z,0.43
2023-03-12T19:13:42.422Z,0.30
2023-03-12T19:16:11.090Z,0.47
2023-03-12T19:18:38.816Z,0.40
2023-03-12T19:21:07.755Z,0.10
2023-03-12T19:23:35.547Z,0.50
2023-03-12T19:26:02.055Z,0.60
2023-03-12T19:28:28.542Z,0.70
2023-03-12T19:31:02.841Z,0.70
2023-03-12T19:33:29.574Z,0.93
2023-03-12T19:35:57.054Z,1.05
2023-03-12T19:38:23.892Z,0.75
2023-03-12T19:40:55.443Z,0.98
2023-03-12T19:43:22.814Z,0.90
2023-03-12T19:45:49.516Z,0.57
2023-03-12T19:48:15.986Z,0.63
2023-03-12T19:50:45.033Z,1.55
2023-03-12T19:53:12.135Z,0.85
2023-03-12T19:55:39.181Z,0.95
2023-03-12T19:58:05.585Z,1.20
2023-03-12T20:00:32.361Z,1.48
2023-03-12T20:02:59.551Z,1.55
2023-03-12T20:05:26.107Z,1.50
2023-03-12T20:07:52.588Z,1.77
2023-03-12T20:10:19.009Z,2.13
2023-03-12T20:12:46.789Z,2.00
2023-03-12T20:15:13.299Z,2.05
2023-03-12T20:17:39.752Z,1.70
2023-03-12T20:20:07.965Z,2.00
2023-03-12T20:22:36.251Z,2.53
2023-03-12T20:25:05.357Z,2.15
2023-03-12T20:27:33.978Z,1.95
2023-03-12T20:30:00.464Z,1.80
2023-03-12T20:32:27.009Z,3.17
2023-03-12T20:34:53.435Z,2.13
2023-03-12T20:37:19.885Z,2.22
2023-03-12T20:39:46.374Z,1.80
2023-03-12T20:42:12.801Z,1.55
2023-03-12T20:44:39.429Z,2.05
2023-03-12T20:47:05.897Z,1.97
2023-03-12T20:49:32.417Z,1.75
2023-03-12T20:51:59.002Z,1.67
2023-03-12T20:54:25.875Z,1.77
2023-03-12T20:56:52.310Z,1.80
2023-03-12T20:59:18.900Z,2.20
2023-03-12T21:01:45.353Z,1.90
2023-03-12T21:04:11.810Z,1.63
2023-03-12T21:06:38.291Z,1.60
2023-03-12T21:09:04.838Z,1.45
2023-03-12T21:11:31.360Z,1.90
2023-03-12T21:13:57.890Z,1.77
2023-03-12T21:16:24.384Z,1.70
2023-03-12T21:18:55.465Z,1.58
2023-03-12T21:21:21.877Z,1.25
2023-03-12T21:23:48.373Z,1.37
2023-03-12T21:26:14.803Z,1.88
2023-03-12T21:28:41.158Z,1.30
2023-03-12T21:31:10.535Z,2.05
2023-03-12T21:33:37.165Z,1.60
2023-03-12T21:36:08.720Z,1.87
2023-03-12T21:38:36.352Z,2.05
2023-03-12T21:41:11.857Z,1.73
2023-03-12T21:43:39.052Z,2.10
2023-03-12T21:46:10.829Z,1.70
2023-03-12T21:48:38.328Z,1.67
2023-03-12T21:51:10.137Z,1.60
2023-03-12T21:53:37.311Z,1.98
2023-03-12T21:56:05.503Z,1.88
2023-03-12T21:58:33.142Z,1.55
2023-03-12T22:01:06.648Z,2.23
2023-03-12T22:03:33.624Z,2.40
2023-03-12T22:06:00.133Z,2.28
2023-03-12T22:08:26.897Z,2.85
2023-03-12T22:10:53.511Z,2.83
2023-03-12T22:13:20.029Z,2.10
2023-03-12T22:16:08.057Z,1.95
2023-03-12T22:18:41.198Z,2.15
2023-03-12T22:21:07.831Z,2.13
2023-03-12T22:23:36.439Z,1.90
2023-03-12T22:26:07.109Z,2.20
2023-03-12T22:28:33.943Z,1.70
2023-03-12T22:31:02.858Z,1.65
2023-03-12T22:33:29.755Z,2.33
2023-03-12T22:35:57.728Z,2.05
2023-03-12T22:38:24.924Z,2.97
2023-03-12T22:40:53.173Z,3.00
2023-03-12T22:43:21.438Z,1.98
2023-03-12T22:45:47.879Z,2.28
2023-03-12T22:48:14.314Z,2.15
2023-03-12T22:50:40.744Z,2.33
2023-03-12T22:53:07.229Z,2.22
2023-03-12T22:55:33.957Z,2.40
2023-03-12T22:58:00.454Z,2.03
2023-03-12T23:00:26.896Z,2.08
2023-03-12T23:02:53.664Z,2.50
2023-03-12T23:05:20.312Z,1.67
2023-03-12T23:07:46.886Z,1.95
2023-03-12T23:10:13.391Z,2.72
2023-03-12T23:12:39.858Z,2.50
2023-03-12T23:15:06.732Z,2.37
2023-03-12T23:17:33.245Z,1.95
2023-03-12T23:19:59.697Z,2.00
2023-03-12T23:22:26.090Z,2.22
2023-03-12T23:24:53.138Z,1.75
2023-03-12T23:27:19.617Z,2.23
2023-03-12T23:29:46.034Z,2.55
2023-03-12T23:32:12.879Z,2.20
2023-03-12T23:34:39.314Z,1.60
2023-03-12T23:37:06.139Z,2.25
2023-03-12T23:39:35.369Z,1.90
2023-03-12T23:42:05.884Z,1.95
2023-03-12T23:44:32.484Z,2.45
2023-03-12T23:46:58.906Z,2.17
2023-03-12T23:49:25.477Z,2.00
2023-03-12T23:51:51.893Z,2.20
2023-03-12T23:54:18.403Z,1.88
2023-03-12T23:56:44.806Z,1.98
2023-03-12T23:59:11.208Z,2.05
